Terminal Aerodrome Forecast
Issued by NWS Sterling, VA

Current Version | Previous Version | Graphics & Text | Print | Product List | Glossary On
Versions: 1 2 3 4 5 6 7 8 9 10 11 12 13
000
FTUS41 KLWX 171100
TAFMRB
TAF
KMRB 171120Z 1712/1812 24004KT P6SM SCT050
     FM171500 25008KT P6SM FEW040
     FM171800 21009KT P6SM SCT035
     FM172300 18008KT P6SM BKN060
     FM180800 24006KT P6SM BKN040=

USA.gov is the U.S. government's official web portal to all federal, state and local government web resources and services.